This is the latest recevied weather packets stored in our database for station/object IW0REF-8. If no packets are shown the sender has not sent any weather packets the latest 10 day(s).
| Time | Temp. | Humidity | Pressure | Rain* | Wind** | Luminosity | Snow |
|---|---|---|---|---|---|---|---|
| 1777246857 | 13.33° C | 42% | 1024.5 hPa | - | - | - | - |
| 1777245956 | 13.33° C | 44% | 1024.7 hPa | - | - | - | - |
| 1777245056 | 13.89° C | 43% | 1024.6 hPa | - | - | - | - |
| 1777244188 | 13.89° C | 43% | 1024.5 hPa | - | - | - | - |
| 1777244155 | 13.89° C | 43% | 1024.5 hPa | - | - | - | - |
| 1777243255 | 13.89° C | 43% | 1024.5 hPa | - | - | - | - |
| 1777242354 | 14.44° C | 43% | 1024.2 hPa | - | - | - | - |
| 1777241454 | 15° C | 42% | 1024.1 hPa | - | - | - | - |
| 1777240586 | 15° C | 41% | 1024.1 hPa | - | - | - | - |
| 1777240554 | 15° C | 41% | 1024.1 hPa | - | - | - | - |
| 1777239653 | 15° C | 41% | 1024.1 hPa | - | - | - | - |
| 1777238753 | 15.56° C | 41% | 1024.2 hPa | - | - | - | - |
| 1777237853 | 15° C | 41% | 1024.2 hPa | - | - | - | - |
| 1777236951 | 15° C | 42% | 1024.3 hPa | - | - | - | - |
| 1777236048 | 15.56° C | 37% | 1023.4 hPa | - | - | - | - |
| 1777235148 | 15.56° C | 36% | 1023.4 hPa | - | - | - | - |
| 1777234248 | 16.67° C | 38% | 1023.5 hPa | - | - | - | - |
| 1777233348 | 16.11° C | 39% | 1023.5 hPa | - | - | - | - |
| 1777232444 | 16.11° C | 36% | 1022.9 hPa | - | - | - | - |
| 1777231544 | 16.11° C | 35% | 1022.5 hPa | - | - | - | - |
| 1777230644 | 16.67° C | 35% | 1022.3 hPa | - | - | - | - |
| 1777229742 | 17.22° C | 35% | 1022.2 hPa | - | - | - | - |
| 1777228842 | 17.22° C | 37% | 1022.2 hPa | - | - | - | - |
| 1777227942 | 17.78° C | 36% | 1021.9 hPa | - | - | - | - |
| 1777227042 | 18.89° C | 34% | 1021.2 hPa | - | - | - | - |
* Rain since midnight (hover to see other rain measurements)
** Current wind speed in m/s (hover to see current wind gust speed)